Little Rock Air Force Base, Arkansas
Current Conditions -  °F | °C
As of 4:58 PM on Thursday 23 Oct 2014 (Local Time) from KLRF Reporting Station
Few Clouds Few Clouds  
Wind Chill: 63°   Ceiling: Unl
Heat Index: 63°   Visibility: 10mi
Dew Point: 46°   Wind: 2mph
Humidity: 55%   Direction: 10°N
Pressure: 30.15"   Gusts: NA
Location:  34.9074°N, 92.1397°W
Report Text: KLRF 232158Z AUTO 01002KT 10SM FEW170 17/08 A3015 RMK AO2 SLP213 T01710079
Loading
Personal Weather Stations






























Interactive Weather Map
Tropical Storm Tracking
New forecast layout! Learn more

10-Day Weather Forecast

Advertisements
Track Severe Weather on mobile